Time;durP1;ratioP1;P1;durP2;ratioP2;P2;SDS_P1;SDS_P2;PMS_P1;PMS_P2;Temp;Humidity;BMP_temperature;BMP_pressure;BME280_temperature;BME280_humidity;BME280_pressure;Samples;Min_cycle;Max_cycle;Signal;HPM_P1;HPM_P2
2021/12/16 00:02:19;;;;;;;23.08;14.45;;;8.30;99.90;;;;;;5027344;28;20050;-65
2021/12/16 00:34:14;;;;;;;30.15;14.80;;;8.30;99.90;;;;;;5102896;28;20039;-65
2021/12/16 00:36:42;;;;;;;26.15;15.38;;;8.30;99.90;;;;;;5105250;28;20039;-65
2021/12/16 00:39:18;;;;;;;25.73;14.85;;;8.30;99.90;;;;;;5087307;28;20059;-65
2021/12/16 00:41:47;;;;;;;22.10;15.23;;;8.30;99.90;;;;;;5086758;28;20046;-65
2021/12/16 00:44:36;;;;;;;25.85;14.50;;;8.30;99.90;;;;;;5105374;28;20058;-65
2021/12/16 00:49:36;;;;;;;29.02;15.73;;;8.30;99.90;;;;;;5086142;28;20055;-65
2021/12/16 00:54:54;;;;;;;24.63;15.90;;;8.30;99.90;;;;;;5103562;28;19935;-65
2021/12/16 00:57:20;;;;;;;30.48;16.05;;;8.20;99.90;;;;;;5104242;28;20048;-65
2021/12/16 00:59:49;;;;;;;29.27;17.15;;;8.20;99.90;;;;;;5103964;28;20047;-65
2021/12/16 01:08:19;;;;;;;31.55;16.77;;;8.20;99.90;;;;;;5104048;28;20059;-65
2021/12/16 01:35:53;;;;;;;27.13;17.73;;;8.00;99.90;;;;;;5064302;28;20115;-65
2021/12/16 01:57:14;;;;;;;37.30;19.52;;;7.90;99.90;;;;;;5066013;28;20500;-65
2021/12/16 01:59:45;;;;;;;30.15;19.33;;;8.00;99.90;;;;;;5058610;28;20085;-65
2021/12/16 02:02:36;;;;;;;31.90;19.20;;;8.00;99.90;;;;;;5066503;28;20041;-65
2021/12/16 02:06:22;;;;;;;34.97;19.98;;;8.00;99.90;;;;;;5060810;28;20048;-65
2021/12/16 02:08:18;;;;;;;33.97;20.48;;;8.00;99.90;;;;;;5055407;28;20386;-65
2021/12/16 02:10:55;;;;;;;32.50;20.52;;;8.00;99.90;;;;;;5059353;28;20100;-65
2021/12/16 02:13:44;;;;;;;32.78;20.27;;;7.90;99.90;;;;;;5066282;28;20084;-65
2021/12/16 02:33:17;;;;;;;32.72;20.77;;;8.00;99.90;;;;;;5020594;28;20050;-65
2021/12/16 02:35:46;;;;;;;41.83;21.65;;;8.00;99.90;;;;;;5023966;28;20121;-65
2021/12/16 02:38:17;;;;;;;39.20;22.33;;;8.10;99.90;;;;;;5021054;28;20118;-65
2021/12/16 02:40:43;;;;;;;;;;;8.10;99.90;;;;;;5044835;28;20049;-65
2021/12/16 02:48:34;;;;;;;38.20;20.40;;;8.20;99.90;;;;;;5023706;28;20049;-65
2021/12/16 02:51:07;;;;;;;41.05;20.48;;;8.10;99.90;;;;;;5039046;28;20046;-65
2021/12/16 02:53:36;;;;;;;33.10;20.90;;;8.10;99.90;;;;;;5022313;28;20103;-65
2021/12/16 02:56:04;;;;;;;38.42;20.88;;;8.10;99.90;;;;;;5038974;28;20045;-65
2021/12/16 02:58:31;;;;;;;36.53;20.45;;;8.10;99.90;;;;;;5021618;28;20128;-65
2021/12/16 03:01:06;;;;;;;38.20;20.73;;;8.10;99.90;;;;;;5046799;28;20429;-65
2021/12/16 03:03:34;;;;;;;36.45;20.52;;;8.20;99.90;;;;;;5066406;28;20104;-65
2021/12/16 03:06:02;;;;;;;36.03;20.83;;;8.20;99.90;;;;;;5064158;28;20049;-65
2021/12/16 03:08:29;;;;;;;39.42;21.38;;;8.10;99.90;;;;;;5066369;28;20044;-65
2021/12/16 03:13:49;;;;;;;39.08;22.40;;;8.20;99.90;;;;;;5065197;28;20067;-65
2021/12/16 03:16:32;;;;;;;33.50;20.58;;;8.10;99.90;;;;;;5063655;28;20045;-65
2021/12/16 03:21:35;;;;;;;37.33;20.08;;;8.10;99.90;;;;;;5064602;28;20146;-65
2021/12/16 03:27:25;;;;;;;38.17;20.92;;;8.20;99.90;;;;;;5064907;28;20059;-65
2021/12/16 03:30:03;;;;;;;37.20;20.20;;;8.10;99.90;;;;;;5075881;28;20062;-65
2021/12/16 03:35:32;;;;;;;34.05;19.80;;;8.20;99.90;;;;;;5086974;28;20076;-65
2021/12/16 03:38:02;;;;;;;37.38;20.50;;;8.20;99.90;;;;;;5084022;28;20051;-65
2021/12/16 03:40:29;;;;;;;35.47;20.65;;;8.20;99.90;;;;;;5086318;28;20051;-65
2021/12/16 03:43:01;;;;;;;36.50;21.65;;;8.20;99.90;;;;;;5088245;28;20063;-65
2021/12/16 03:48:43;;;;;;;36.40;20.70;;;8.20;99.90;;;;;;5104893;28;20469;-65
2021/12/16 03:51:18;;;;;;;36.95;20.83;;;8.10;99.90;;;;;;5086718;28;20056;-65
2021/12/16 03:53:46;;;;;;;40.22;22.08;;;8.10;99.90;;;;;;5106188;28;20050;-65
2021/12/16 03:56:12;;;;;;;35.95;21.77;;;8.10;99.90;;;;;;5087085;28;20048;-65
2021/12/16 03:58:39;;;;;;;37.83;22.00;;;8.10;99.90;;;;;;5104341;28;20047;-65
2021/12/16 04:01:09;;;;;;;40.55;22.58;;;8.10;99.90;;;;;;5080032;28;20048;-65
2021/12/16 04:03:35;;;;;;;44.40;22.13;;;8.00;99.90;;;;;;5104653;28;20063;-65
2021/12/16 04:06:01;;;;;;;36.70;22.17;;;8.00;99.90;;;;;;5105858;28;20055;-65
2021/12/16 04:08:27;;;;;;;45.45;22.63;;;8.00;99.90;;;;;;5105605;28;20044;-65
2021/12/16 04:11:17;;;;;;;36.72;20.42;;;7.90;99.90;;;;;;5105683;28;20044;-65
2021/12/16 04:14:03;;;;;;;;;;;7.90;99.90;;;;;;5101447;28;20439;-65
2021/12/16 04:16:34;;;;;;;39.88;21.77;;;7.80;99.90;;;;;;5085003;28;19931;-65
2021/12/16 04:19:03;;;;;;;40.28;21.85;;;7.80;99.90;;;;;;5104645;28;20055;-65
2021/12/16 04:21:29;;;;;;;40.50;22.17;;;7.70;99.90;;;;;;5085874;28;20044;-65
2021/12/16 04:23:57;;;;;;;37.08;22.60;;;7.70;99.90;;;;;;5105381;28;20048;-65
2021/12/16 04:26:26;;;;;;;40.90;21.73;;;7.70;99.90;;;;;;5086988;28;20047;-65
2021/12/16 04:28:52;;;;;;;43.65;24.02;;;7.70;99.90;;;;;;5104722;28;20048;-65
2021/12/16 04:31:18;;;;;;;41.45;22.95;;;7.70;99.90;;;;;;5082341;28;20055;-65
2021/12/16 04:33:45;;;;;;;38.75;21.13;;;7.60;99.90;;;;;;5082424;28;20053;-65
2021/12/16 04:36:12;;;;;;;48.65;23.95;;;7.60;99.90;;;;;;5084163;28;20076;-65
2021/12/16 04:38:40;;;;;;;37.78;23.27;;;7.50;99.90;;;;;;5083727;28;20080;-65
2021/12/16 04:41:12;;;;;;;40.95;22.75;;;7.50;99.90;;;;;;5082119;28;20106;-65
2021/12/16 04:43:40;;;;;;;43.30;24.77;;;7.40;99.90;;;;;;5083950;28;20056;-65
2021/12/16 04:46:12;;;;;;;43.75;23.52;;;7.40;99.90;;;;;;5082134;28;20416;-65
2021/12/16 04:48:40;;;;;;;50.58;23.35;;;7.40;99.90;;;;;;5083258;28;20032;-65
2021/12/16 04:51:07;;;;;;;44.97;23.63;;;7.30;99.90;;;;;;5084765;28;20068;-65
2021/12/16 04:53:33;;;;;;;44.38;23.90;;;7.30;99.90;;;;;;5083587;28;20048;-65
2021/12/16 04:55:59;;;;;;;39.67;23.67;;;7.30;99.90;;;;;;5082314;28;20104;-65
2021/12/16 04:58:26;;;;;;;46.50;24.05;;;7.20;99.90;;;;;;5082207;28;20055;-65
2021/12/16 05:00:52;;;;;;;43.10;24.95;;;7.10;99.90;;;;;;5081658;28;20091;-65
2021/12/16 05:03:18;;;;;;;39.92;22.58;;;7.10;99.90;;;;;;5083532;28;20057;-65
2021/12/16 05:05:44;;;;;;;39.17;23.17;;;7.20;99.90;;;;;;5083496;28;20044;-65
2021/12/16 05:08:10;;;;;;;45.58;24.98;;;7.00;99.90;;;;;;5083408;28;20104;-65
2021/12/16 05:10:36;;;;;;;41.75;23.90;;;7.00;99.90;;;;;;5081804;28;20071;-65
2021/12/16 05:13:04;;;;;;;49.70;24.48;;;7.00;99.90;;;;;;5084840;28;20068;-65
2021/12/16 05:15:34;;;;;;;40.53;22.33;;;7.10;99.90;;;;;;5088372;28;20100;-65
2021/12/16 05:18:04;;;;;;;42.67;24.30;;;7.10;99.90;;;;;;5083318;28;20045;-65
2021/12/16 05:20:39;;;;;;;44.03;25.65;;;7.10;99.90;;;;;;5087283;28;20096;-65
2021/12/16 05:28:27;;;;;;;49.47;27.08;;;7.20;99.90;;;;;;5087042;28;20048;-65
2021/12/16 05:30:53;;;;;;;48.80;24.63;;;7.20;99.90;;;;;;5087040;28;20083;-65
2021/12/16 05:33:20;;;;;;;49.15;26.80;;;7.20;99.90;;;;;;5086593;28;20057;-65
2021/12/16 05:35:46;;;;;;;56.92;26.50;;;7.30;99.90;;;;;;5086006;28;20049;-65
2021/12/16 05:38:12;;;;;;;50.95;26.15;;;7.30;99.90;;;;;;5086767;28;20489;-65
2021/12/16 05:40:39;;;;;;;44.67;25.83;;;7.40;99.90;;;;;;5085457;28;20051;-65
2021/12/16 05:43:12;;;;;;;46.80;26.67;;;7.40;99.90;;;;;;5085675;28;20052;-65
2021/12/16 05:45:39;;;;;;;50.05;26.85;;;7.40;99.90;;;;;;5086389;28;20071;-64
2021/12/16 05:48:09;;;;;;;47.08;26.90;;;7.50;99.90;;;;;;5086296;28;20048;-64
2021/12/16 05:50:37;;;;;;;47.47;26.27;;;7.40;99.90;;;;;;5087896;28;20052;-65
2021/12/16 05:53:04;;;;;;;47.42;27.65;;;7.40;99.90;;;;;;5091801;28;20095;-64
2021/12/16 05:55:30;;;;;;;51.60;27.80;;;7.40;99.90;;;;;;5040393;28;20052;-64
2021/12/16 05:57:57;;;;;;;50.20;26.90;;;7.50;99.90;;;;;;5070410;28;20048;-66
2021/12/16 06:00:31;;;;;;;49.90;26.77;;;7.50;99.90;;;;;;5074034;28;20621;-66
2021/12/16 06:02:57;;;;;;;51.70;26.90;;;7.50;99.90;;;;;;5062781;28;20380;-66
2021/12/16 06:05:23;;;;;;;50.83;26.77;;;7.50;99.90;;;;;;5079160;28;20047;-66
2021/12/16 06:07:49;;;;;;;47.10;27.30;;;7.50;99.90;;;;;;5068308;28;20044;-68
2021/12/16 06:10:52;;;;;;;48.08;26.45;;;7.50;99.90;;;;;;5079656;28;20032;-66
2021/12/16 06:13:04;;;;;;;43.22;25.27;;;7.60;99.90;;;;;;5071874;28;20052;-66
2021/12/16 06:22:30;;;;;;;46.10;26.17;;;7.50;99.90;;;;;;5078767;28;20048;-65
2021/12/16 06:26:45;;;;;;;50.17;26.13;;;7.60;99.90;;;;;;5097730;28;20115;-65
2021/12/16 06:29:11;;;;;;;50.67;27.77;;;7.50;99.90;;;;;;5077694;28;20072;-65
2021/12/16 06:31:36;;;;;;;47.65;27.08;;;7.50;99.90;;;;;;5083696;28;20057;-64
2021/12/16 06:34:03;;;;;;;50.88;28.13;;;7.50;99.90;;;;;;5059266;28;20469;-64
2021/12/16 06:36:29;;;;;;;51.20;28.50;;;7.60;99.90;;;;;;5084250;28;20044;-64
2021/12/16 06:38:55;;;;;;;58.25;26.85;;;7.50;99.90;;;;;;5078764;28;20051;-64
2021/12/16 06:41:22;;;;;;;46.75;26.98;;;7.60;99.90;;;;;;5091400;28;20040;-64
2021/12/16 06:43:50;;;;;;;52.10;28.17;;;7.50;99.90;;;;;;5061624;28;20055;-64
2021/12/16 06:46:19;;;;;;;51.78;28.42;;;7.50;99.90;;;;;;5084309;28;20076;-64
2021/12/16 06:48:49;;;;;;;56.38;28.23;;;7.40;99.90;;;;;;5076042;28;20185;-64
2021/12/16 06:51:22;;;;;;;53.90;27.80;;;7.50;99.90;;;;;;5093379;28;20056;-65
2021/12/16 06:54:01;;;;;;;52.55;26.42;;;7.30;99.90;;;;;;5076066;28;20055;-66
2021/12/16 06:56:34;;;;;;;54.25;26.80;;;7.30;99.90;;;;;;5058000;28;20228;-64
2021/12/16 06:59:11;;;;;;;51.53;28.00;;;7.30;99.90;;;;;;5072220;28;20138;-64
2021/12/16 07:01:40;;;;;;;52.63;28.10;;;7.30;99.90;;;;;;5078018;28;20044;-64
2021/12/16 07:04:10;;;;;;;52.97;26.13;;;7.20;99.90;;;;;;5074601;28;20523;-64
2021/12/16 07:06:38;;;;;;;47.35;25.02;;;7.20;99.90;;;;;;5080359;28;20070;-64
2021/12/16 07:09:13;;;;;;;46.40;26.63;;;7.20;99.90;;;;;;5049387;28;20560;-65
2021/12/16 07:11:52;;;;;;;57.83;26.58;;;7.20;99.90;;;;;;5054371;28;20072;-64
2021/12/16 07:14:27;;;;;;;60.53;27.52;;;7.00;99.90;;;;;;5053893;28;20064;-64
2021/12/16 07:16:57;;;;;;;50.85;25.58;;;7.00;99.90;;;;;;5034280;28;20135;-64
2021/12/16 07:19:22;;;;;;;48.88;26.17;;;6.90;99.90;;;;;;5053213;28;20051;-65
2021/12/16 07:21:48;;;;;;;53.88;25.70;;;6.90;99.90;;;;;;5056547;28;20056;-64
2021/12/16 07:24:17;;;;;;;54.92;27.20;;;6.80;99.90;;;;;;5032325;28;20049;-64
2021/12/16 07:26:43;;;;;;;54.97;27.90;;;6.80;99.90;;;;;;5056215;28;20497;-64
2021/12/16 07:29:09;;;;;;;52.00;27.55;;;6.90;99.90;;;;;;5049467;28;20171;-64
2021/12/16 07:31:37;;;;;;;52.50;26.05;;;6.90;99.90;;;;;;5066384;28;20052;-64
2021/12/16 07:34:03;;;;;;;54.15;28.02;;;6.90;99.90;;;;;;5048967;28;20052;-64
2021/12/16 07:36:30;;;;;;;54.45;27.27;;;6.80;99.90;;;;;;5056040;28;20394;-64
2021/12/16 07:38:57;;;;;;;56.25;29.08;;;6.90;99.90;;;;;;5048852;28;20395;-65
2021/12/16 07:41:26;;;;;;;55.90;28.42;;;6.80;99.90;;;;;;5055723;28;20052;-63
2021/12/16 07:44:09;;;;;;;59.67;27.70;;;6.80;99.90;;;;;;5049171;28;20116;-63
2021/12/16 07:46:54;;;;;;;52.45;25.80;;;6.80;99.90;;;;;;5053572;28;20131;-63
2021/12/16 07:49:26;;;;;;;58.50;27.45;;;6.80;99.90;;;;;;5051042;28;20094;-63
2021/12/16 07:51:53;;;;;;;55.88;26.60;;;6.70;99.90;;;;;;5050178;28;20531;-63
2021/12/16 07:54:20;;;;;;;48.15;25.77;;;6.70;99.90;;;;;;5040327;28;20052;-63
2021/12/16 07:56:47;;;;;;;51.13;24.75;;;6.60;99.90;;;;;;5048084;28;20052;-63
2021/12/16 07:59:13;;;;;;;55.03;25.90;;;6.50;99.90;;;;;;5056991;28;20081;-63
2021/12/16 08:01:42;;;;;;;65.22;26.63;;;6.50;99.90;;;;;;5063467;28;20075;-63
2021/12/16 08:04:17;;;;;;;57.70;26.85;;;6.40;99.90;;;;;;5059375;28;20761;-62
2021/12/16 08:06:43;;;;;;;55.75;26.73;;;6.40;99.90;;;;;;5062347;28;20128;-63
2021/12/16 08:09:09;;;;;;;66.82;27.77;;;6.40;99.90;;;;;;5080206;28;20047;-63
2021/12/16 08:11:38;;;;;;;53.05;27.23;;;6.40;99.90;;;;;;5083148;28;20151;-63
2021/12/16 08:14:05;;;;;;;52.65;25.27;;;6.40;99.90;;;;;;5059710;28;20383;-63
2021/12/16 08:16:32;;;;;;;66.82;27.85;;;6.30;99.90;;;;;;5072075;28;20133;-63
2021/12/16 08:18:58;;;;;;;62.10;27.08;;;6.30;99.90;;;;;;5080342;28;20040;-63
2021/12/16 08:21:28;;;;;;;63.03;26.65;;;6.20;99.90;;;;;;5073145;28;20072;-63
2021/12/16 08:23:55;;;;;;;56.08;27.00;;;6.20;99.90;;;;;;5081007;28;20049;-62
2021/12/16 08:26:22;;;;;;;65.63;27.60;;;6.20;99.90;;;;;;5058979;28;20128;-62
2021/12/16 08:28:47;;;;;;;61.88;28.95;;;6.30;99.90;;;;;;5058846;28;20276;-62
2021/12/16 08:31:14;;;;;;;64.63;28.15;;;6.30;99.90;;;;;;5058614;28;20048;-62
2021/12/16 08:33:40;;;;;;;66.57;28.08;;;6.50;99.90;;;;;;5035674;28;20056;-62
2021/12/16 08:36:07;;;;;;;68.63;29.83;;;6.50;99.90;;;;;;5067415;28;20056;-62
2021/12/16 08:38:36;;;;;;;69.22;30.05;;;6.50;99.90;;;;;;5063580;28;20072;-61
2021/12/16 08:41:10;;;;;;;66.97;28.17;;;6.50;99.90;;;;;;5061954;28;20163;-62
2021/12/16 08:43:44;;;;;;;73.25;31.25;;;6.60;99.90;;;;;;5068522;28;20052;-62
2021/12/16 08:46:12;;;;;;;80.88;32.78;;;6.60;99.90;;;;;;5042749;28;20042;-62
2021/12/16 08:48:39;;;;;;;78.25;32.72;;;6.70;99.90;;;;;;5067264;28;20048;-62
2021/12/16 08:51:06;;;;;;;79.57;34.25;;;6.70;99.90;;;;;;5072773;28;20529;-62
2021/12/16 08:53:32;;;;;;;77.82;34.38;;;6.70;99.90;;;;;;5050655;28;20254;-62
2021/12/16 08:55:58;;;;;;;83.10;35.55;;;6.90;99.90;;;;;;5022416;28;20060;-62
2021/12/16 08:58:25;;;;;;;95.28;34.55;;;7.00;99.90;;;;;;5056742;28;20048;-61
2021/12/16 09:01:03;;;;;;;88.20;34.33;;;7.00;99.90;;;;;;5048492;28;20052;-61
2021/12/16 09:03:30;;;;;;;96.60;37.55;;;7.10;99.90;;;;;;5064827;28;20100;-62
2021/12/16 09:05:57;;;;;;;98.72;37.00;;;7.20;99.90;;;;;;5052278;28;20091;-62
2021/12/16 09:08:24;;;;;;;101.18;38.42;;;7.40;99.90;;;;;;5059187;28;20059;-62
2021/12/16 09:10:49;;;;;;;111.72;36.10;;;7.50;99.90;;;;;;5055172;28;20130;-62
2021/12/16 09:13:17;;;;;;;109.75;39.33;;;7.50;99.90;;;;;;5056535;28;20029;-62
2021/12/16 09:15:53;;;;;;;132.02;39.55;;;7.60;99.90;;;;;;5060945;28;20100;-62
2021/12/16 09:18:26;;;;;;;120.55;38.40;;;7.60;99.90;;;;;;5066949;28;20040;-62
2021/12/16 09:20:52;;;;;;;91.40;35.70;;;7.70;99.90;;;;;;5051269;28;20052;-62
2021/12/16 09:23:19;;;;;;;100.70;36.65;;;7.70;99.90;;;;;;5039384;28;20068;-62
2021/12/16 09:25:46;;;;;;;104.57;37.42;;;7.80;99.90;;;;;;5049220;28;20059;-62
2021/12/16 09:28:13;;;;;;;103.13;35.97;;;7.80;99.90;;;;;;5067398;28;20061;-62
2021/12/16 09:30:39;;;;;;;93.93;35.15;;;7.80;99.90;;;;;;5061455;28;20062;-62
2021/12/16 09:33:07;;;;;;;82.93;33.08;;;7.80;99.90;;;;;;5077704;28;20045;-62
2021/12/16 09:35:38;;;;;;;86.53;34.13;;;7.80;99.90;;;;;;5069512;28;20052;-62
2021/12/16 09:38:07;;;;;;;92.18;34.95;;;7.80;99.90;;;;;;5075040;28;20417;-62
2021/12/16 09:40:36;;;;;;;90.20;34.35;;;7.80;99.90;;;;;;5070338;28;20039;-62
2021/12/16 09:43:03;;;;;;;92.20;34.90;;;7.70;99.90;;;;;;5111599;28;20104;-62
2021/12/16 09:45:29;;;;;;;87.50;34.70;;;7.80;99.90;;;;;;5090924;28;20433;-62
2021/12/16 09:47:55;;;;;;;96.78;34.03;;;7.80;99.90;;;;;;5099124;28;20047;-62
2021/12/16 09:50:25;;;;;;;79.65;33.00;;;7.90;99.90;;;;;;5086306;28;20059;-62
2021/12/16 09:52:51;;;;;;;87.85;32.85;;;7.90;99.90;;;;;;5060608;28;20040;-62
2021/12/16 09:55:18;;;;;;;107.75;35.17;;;7.90;99.90;;;;;;5056879;28;20108;-62
2021/12/16 09:57:44;;;;;;;101.78;32.70;;;8.00;99.90;;;;;;5075771;28;20040;-62
2021/12/16 10:00:13;;;;;;;95.20;33.17;;;8.10;99.90;;;;;;5068001;28;20032;-62
2021/12/16 10:02:39;;;;;;;102.50;34.80;;;8.00;99.90;;;;;;5062142;28;20052;-61
2021/12/16 10:05:07;;;;;;;97.10;32.28;;;8.00;99.90;;;;;;5067583;28;20291;-62
2021/12/16 10:07:34;;;;;;;105.30;32.60;;;8.00;99.90;;;;;;5063487;28;20052;-62
2021/12/16 10:10:05;;;;;;;135.23;33.40;;;8.10;99.90;;;;;;5073401;28;20553;-63
2021/12/16 10:12:37;;;;;;;160.02;33.38;;;8.00;99.90;;;;;;5062436;28;20372;-63
2021/12/16 10:17:19;;;;;;;108.15;30.67;;;8.10;99.90;;;;;;5071547;28;20088;-63
2021/12/16 10:17:50;;;;;;;121.47;32.70;;;8.00;99.90;;;;;;5064539;28;20064;-61
2021/12/16 10:20:21;;;;;;;110.03;30.02;;;8.00;99.90;;;;;;5069180;28;20037;-61
2021/12/16 10:22:48;;;;;;;182.73;34.50;;;8.00;99.90;;;;;;5063660;28;20091;-61
2021/12/16 10:25:33;;;;;;;116.13;31.27;;;8.10;99.90;;;;;;5068518;28;20048;-62
2021/12/16 10:28:01;;;;;;;154.38;31.50;;;8.10;99.90;;;;;;5066203;28;20048;-61
2021/12/16 10:30:51;;;;;;;164.85;33.95;;;8.00;99.90;;;;;;5061132;28;20061;-62
2021/12/16 10:33:41;;;;;;;172.27;34.53;;;8.10;99.90;;;;;;5044636;28;20045;-61
2021/12/16 10:36:12;;;;;;;147.57;33.95;;;8.10;99.90;;;;;;5051451;28;20098;-62
2021/12/16 10:38:40;;;;;;;175.30;37.10;;;8.10;99.90;;;;;;5054318;28;20532;-61
2021/12/16 10:41:08;;;;;;;145.95;33.33;;;8.10;99.90;;;;;;5050890;28;20147;-63
2021/12/16 10:43:40;;;;;;;164.80;36.15;;;8.10;99.90;;;;;;5051959;28;20044;-62
2021/12/16 10:46:15;;;;;;;176.02;35.17;;;8.10;99.90;;;;;;5047339;28;20823;-61
2021/12/16 10:48:44;;;;;;;139.40;33.05;;;8.20;99.90;;;;;;5052841;28;20124;-61
2021/12/16 10:51:18;;;;;;;156.43;34.37;;;8.10;99.90;;;;;;5044883;28;20053;-61
2021/12/16 10:53:59;;;;;;;138.88;34.40;;;8.20;99.90;;;;;;5051442;28;20045;-62
2021/12/16 10:56:30;;;;;;;139.75;34.63;;;8.20;99.90;;;;;;5037635;28;20527;-61
2021/12/16 10:59:04;;;;;;;119.13;32.97;;;8.20;99.90;;;;;;5059433;28;20059;-61
2021/12/16 11:01:52;;;;;;;126.35;33.70;;;8.30;99.90;;;;;;5055223;28;20048;-62
2021/12/16 11:04:26;;;;;;;97.72;32.83;;;8.20;99.90;;;;;;5078071;28;20048;-62
2021/12/16 11:07:27;;;;;;;106.63;31.27;;;8.30;99.90;;;;;;5045705;28;20075;-62
2021/12/16 11:10:10;;;;;;;136.77;34.65;;;8.30;99.90;;;;;;5072072;28;20052;-62
2021/12/16 11:12:47;;;;;;;109.97;32.60;;;8.30;99.90;;;;;;5048731;28;20496;-63
2021/12/16 11:15:19;;;;;;;100.97;30.45;;;8.40;99.90;;;;;;5059633;28;20131;-63
2021/12/16 11:18:06;;;;;;;148.82;35.58;;;8.40;99.90;;;;;;5046498;28;20580;-62
2021/12/16 11:20:40;;;;;;;123.68;33.55;;;8.30;99.90;;;;;;5051123;28;20053;-62
2021/12/16 11:23:09;;;;;;;115.35;33.33;;;8.40;99.90;;;;;;5062009;28;20048;-63
2021/12/16 11:25:42;;;;;;;113.32;32.90;;;8.40;99.90;;;;;;5061972;28;20500;-63
2021/12/16 11:28:23;;;;;;;112.93;33.15;;;8.40;99.90;;;;;;5067546;28;20044;-63
2021/12/16 11:30:58;;;;;;;104.45;32.28;;;8.40;99.90;;;;;;5085122;28;20069;-63
2021/12/16 11:33:42;;;;;;;113.93;32.38;;;8.50;99.90;;;;;;5089870;28;20052;-63
2021/12/16 11:36:31;;;;;;;114.70;34.45;;;8.40;99.90;;;;;;5084069;28;20099;-63
2021/12/16 11:39:03;;;;;;;106.78;33.17;;;8.50;99.90;;;;;;5089548;28;20124;-62
2021/12/16 11:41:32;;;;;;;99.25;33.63;;;8.50;99.90;;;;;;5101056;28;20058;-62
2021/12/16 11:44:07;;;;;;;101.90;32.42;;;8.50;99.90;;;;;;5113052;28;20081;-62
2021/12/16 11:46:56;;;;;;;121.40;33.78;;;8.50;99.90;;;;;;5080687;28;20080;-62
2021/12/16 11:49:30;;;;;;;95.45;29.88;;;8.50;99.90;;;;;;5105521;28;20452;-62
2021/12/16 11:52:19;;;;;;;92.57;31.33;;;8.60;99.90;;;;;;5088953;28;20371;-62
2021/12/16 11:54:57;;;;;;;92.53;31.73;;;8.60;99.90;;;;;;5079060;28;20055;-63
2021/12/16 11:57:35;;;;;;;80.65;29.38;;;8.60;99.90;;;;;;5075640;28;20051;-62
2021/12/16 12:00:14;;;;;;;82.28;29.17;;;8.60;99.90;;;;;;5099939;28;20052;-62
2021/12/16 12:02:53;;;;;;;77.95;26.67;;;8.60;99.90;;;;;;5084783;28;20079;-62
2021/12/16 12:05:24;;;;;;;69.03;26.83;;;8.60;99.90;;;;;;5079721;28;20104;-62
2021/12/16 12:07:55;;;;;;;68.65;26.60;;;8.70;99.90;;;;;;5069388;28;20056;-62
2021/12/16 12:11:16;;;;;;;74.72;29.35;;;8.60;99.90;;;;;;5079542;28;20055;-62
2021/12/16 12:13:50;;;;;;;71.20;28.20;;;8.60;99.90;;;;;;4935238;28;20384;-62
2021/12/16 12:16:18;;;;;;;70.60;27.17;;;8.70;99.90;;;;;;4973623;28;20152;-63
2021/12/16 12:18:51;;;;;;;69.70;27.45;;;8.70;99.90;;;;;;4991352;28;20057;-62
2021/12/16 12:21:17;;;;;;;63.08;27.50;;;8.70;99.90;;;;;;4975444;28;20054;-62
2021/12/16 12:23:44;;;;;;;69.45;28.45;;;8.70;99.90;;;;;;4999371;28;20490;-63
2021/12/16 12:26:15;;;;;;;62.53;27.08;;;8.70;99.90;;;;;;4982137;28;20065;-62
2021/12/16 12:28:46;;;;;;;65.45;27.00;;;8.70;99.90;;;;;;4960637;28;20062;-63
2021/12/16 12:31:14;;;;;;;61.35;24.63;;;8.70;99.90;;;;;;4953418;28;20764;-62
2021/12/16 12:33:40;;;;;;;62.08;25.30;;;8.70;99.90;;;;;;4986495;28;20055;-62
2021/12/16 12:36:08;;;;;;;63.63;24.77;;;8.70;99.90;;;;;;4986659;28;20049;-63
2021/12/16 12:38:36;;;;;;;55.92;23.35;;;8.80;99.90;;;;;;4972045;28;20107;-63
2021/12/16 12:41:04;;;;;;;56.25;24.23;;;8.80;99.90;;;;;;4951868;28;20078;-62
2021/12/16 12:43:33;;;;;;;58.28;25.17;;;8.80;99.90;;;;;;4969250;28;20058;-63
2021/12/16 12:46:02;;;;;;;63.45;26.48;;;8.80;99.90;;;;;;4982976;28;20047;-63
2021/12/16 12:48:28;;;;;;;59.33;25.40;;;8.80;99.90;;;;;;5055293;28;20069;-63
2021/12/16 12:50:57;;;;;;;59.03;24.27;;;8.80;99.90;;;;;;5070657;28;20048;-63
2021/12/16 12:53:49;;;;;;;63.40;23.87;;;8.80;99.90;;;;;;5068383;28;20540;-63
2021/12/16 12:56:22;;;;;;;62.75;24.30;;;8.80;99.90;;;;;;5077412;28;20052;-62
2021/12/16 12:59:06;;;;;;;57.05;23.25;;;8.90;99.90;;;;;;5084944;28;20052;-63
2021/12/16 13:01:47;;;;;;;57.97;22.30;;;8.80;99.90;;;;;;5066112;28;20048;-63
2021/12/16 13:04:23;;;;;;;58.88;22.48;;;8.90;99.90;;;;;;5078395;28;20119;-63
2021/12/16 13:07:05;;;;;;;57.20;22.02;;;8.80;99.90;;;;;;5076901;28;20066;-62
2021/12/16 13:09:41;;;;;;;54.83;21.42;;;8.90;99.90;;;;;;5095964;28;20047;-62
2021/12/16 13:12:43;;;;;;;51.53;21.40;;;8.80;99.90;;;;;;5088856;28;20055;-62
2021/12/16 13:15:23;;;;;;;46.10;20.95;;;8.80;99.90;;;;;;5033504;28;20061;-62
2021/12/16 13:23:43;;;;;;;48.90;19.73;;;8.90;99.90;;;;;;4992931;28;20069;-63
2021/12/16 13:29:33;;;;;;;41.42;18.40;;;8.90;99.90;;;;;;5035423;28;20095;-62
2021/12/16 13:32:15;;;;;;;44.30;19.27;;;8.90;99.90;;;;;;5007601;28;20049;-63
2021/12/16 13:35:22;;;;;;;40.53;16.42;;;8.90;99.90;;;;;;5016651;28;20054;-62
2021/12/16 13:37:50;;;;;;;37.08;16.42;;;9.00;99.90;;;;;;5004313;28;20061;-63
2021/12/16 13:40:23;;;;;;;38.80;16.88;;;8.90;99.90;;;;;;5017280;28;20046;-62
2021/12/16 13:42:55;;;;;;;34.33;16.85;;;8.90;99.90;;;;;;5028281;28;20088;-62
2021/12/16 13:45:35;;;;;;;40.15;17.10;;;9.00;99.90;;;;;;5021020;28;20501;-62
2021/12/16 14:02:13;;;;;;;43.13;18.48;;;8.80;99.90;;;;;;5092108;28;20047;-62
2021/12/16 14:10:05;;;;;;;44.75;18.95;;;8.80;99.90;;;;;;5095947;28;20059;-63
2021/12/16 14:15:23;;;;;;;43.70;19.77;;;8.80;99.90;;;;;;5099838;28;20051;-62
2021/12/16 14:17:56;;;;;;;43.05;18.90;;;8.80;99.90;;;;;;5091071;28;20075;-63
2021/12/16 14:23:30;;;;;;;46.25;18.85;;;8.80;99.90;;;;;;5089116;28;20523;-63
2021/12/16 14:26:18;;;;;;;40.58;17.88;;;8.80;99.90;;;;;;5099028;28;20464;-63
2021/12/16 14:42:37;;;;;;;52.13;18.95;;;8.80;99.90;;;;;;5048640;28;20048;-63
2021/12/16 14:50:38;;;;;;;53.03;19.80;;;8.80;99.90;;;;;;5062461;28;20044;-63
2021/12/16 14:53:18;;;;;;;54.92;20.10;;;8.80;99.90;;;;;;5053741;28;20057;-63
2021/12/16 14:55:44;;;;;;;53.00;19.33;;;8.80;99.90;;;;;;5058410;28;20059;-62
2021/12/16 14:58:11;;;;;;;57.10;20.88;;;8.80;99.90;;;;;;5037583;28;20158;-63
2021/12/16 15:00:45;;;;;;;54.15;19.23;;;8.80;99.90;;;;;;5058865;28;20045;-63
2021/12/16 15:03:41;;;;;;;55.35;21.20;;;8.80;99.90;;;;;;5018563;28;20128;-63
2021/12/16 15:06:13;;;;;;;52.67;20.27;;;8.70;99.90;;;;;;5053985;28;20059;-65
2021/12/16 15:08:54;;;;;;;50.67;20.02;;;8.70;99.90;;;;;;5062661;28;20061;-63
2021/12/16 15:11:34;;;;;;;51.80;19.17;;;8.70;99.90;;;;;;5052334;28;20435;-63
2021/12/16 15:14:05;;;;;;;;;;;8.80;99.90;;;;;;5054986;28;20048;-63
2021/12/16 15:16:52;;;;;;;46.95;17.45;;;8.70;99.90;;;;;;5052591;28;19930;-63
2021/12/16 15:44:26;;;;;;;84.57;23.63;;;8.50;99.90;;;;;;5035085;28;20075;-62
2021/12/16 15:46:52;;;;;;;114.47;25.63;;;8.50;99.90;;;;;;5052942;28;20044;-63
2021/12/16 15:49:19;;;;;;;62.80;20.55;;;8.50;99.90;;;;;;5067827;28;20060;-63
2021/12/16 15:51:50;;;;;;;49.45;17.30;;;8.50;99.90;;;;;;5049568;28;20078;-62
2021/12/16 15:54:18;;;;;;;80.75;17.05;;;8.40;99.90;;;;;;5066140;28;20052;-63
2021/12/16 15:56:48;;;;;;;64.78;16.60;;;8.40;99.90;;;;;;5039156;28;20233;-64
2021/12/16 15:59:18;;;;;;;101.65;18.65;;;8.30;99.90;;;;;;5063005;28;20123;-64
2021/12/16 16:01:50;;;;;;;132.27;19.92;;;8.30;99.90;;;;;;5052107;28;20630;-64
2021/12/16 16:04:30;;;;;;;107.28;20.50;;;8.20;99.90;;;;;;5073514;28;20100;-64
2021/12/16 16:07:03;;;;;;;109.07;18.77;;;8.20;99.90;;;;;;5058924;28;20455;-64
2021/12/16 16:09:37;;;;;;;96.70;18.42;;;8.20;99.90;;;;;;5058177;28;20421;-64
2021/12/16 16:12:03;;;;;;;113.95;21.45;;;8.20;99.90;;;;;;5033604;28;20056;-65
2021/12/16 16:14:32;;;;;;;95.47;20.30;;;8.20;99.90;;;;;;5067096;28;20573;-64
2021/12/16 16:16:59;;;;;;;125.85;22.58;;;8.20;99.90;;;;;;5049751;28;20053;-64
2021/12/16 16:19:31;;;;;;;120.75;21.67;;;8.20;99.90;;;;;;5058894;28;20049;-64
2021/12/16 16:22:00;;;;;;;113.07;22.02;;;8.30;99.90;;;;;;5056449;28;20063;-63
2021/12/16 16:24:41;;;;;;;115.57;20.90;;;8.30;99.90;;;;;;5079079;28;20386;-64
2021/12/16 16:27:12;;;;;;;121.13;21.98;;;8.20;99.90;;;;;;5049052;28;20583;-64
2021/12/16 16:29:42;;;;;;;111.63;20.05;;;8.20;99.90;;;;;;5076175;28;20064;-64
2021/12/16 16:32:07;;;;;;;110.70;21.13;;;8.20;99.90;;;;;;5078071;28;20474;-64
2021/12/16 16:34:49;;;;;;;148.88;23.70;;;8.30;99.90;;;;;;5093597;28;20550;-64